Frontenac — VGNB — position and weather

sailwx.info

Track history (hours):
 
Tides and Currents Weather Stations Pressure Air Temp Water Temp Dewpoint Dewpoint Depression Visibility Wind Speed Wind Dir Waves Ship Positions

Frontenac

Last reported at 2017-Dec-20 18:54 UTC. Time now 2018-Feb-22 09:06 UTC.
Position N 45°43' W 083°40'.
Warning: this ship's position is months out of date.

Length 223 m; draft 7.3 m.

Type: Cargo ship. MMSI: 316001834.

Date/timePositionNaut miles runAvg speedWind from/ knotsBaromVisibWave heightAir tempDewpointWater temp
2017-Dec-20 18:54N 45°43' W 083°40'513.4
2017-Dec-20 18:30N 45°38' W 083°36'713.2
2017-Dec-20 18:00N 45°32' W 083°31'613.0
2017-Dec-20 17:31N 45°27' W 083°26'  
2017-Dec-13 04:42N 45°26' W 083°21'313.0
2017-Dec-13 04:30N 45°28' W 083°24'613.1
2017-Dec-13 04:00N 45°32' W 083°30'612.9
2017-Dec-13 03:30N 45°37' W 083°37'712.8
2017-Dec-13 02:57N 45°43' W 083°42'  
Track history (hours):
 
Tides and Currents Weather Stations Pressure Air Temp Water Temp Dewpoint Dewpoint Depression Visibility Wind Speed Wind Dir Waves Ship Positions

Frontenac

Last reported at 2017-Dec-20 18:54 UTC. Time now 2018-Feb-22 09:06 UTC.
Position N 45°43' W 083°40'.
Warning: this ship's position is months out of date.

Length 223 m; draft 7.3 m.

Type: Cargo ship. MMSI: 316001834.

Date/timePositionNaut miles runAvg speedWind from/ knotsBaromVisibWave heightAir tempDewpointWater temp
2017-Dec-20 18:54N 45°43' W 083°40'513.4
2017-Dec-20 18:30N 45°38' W 083°36'713.2
2017-Dec-20 18:00N 45°32' W 083°31'613.0
2017-Dec-20 17:31N 45°27' W 083°26'  
2017-Dec-13 04:42N 45°26' W 083°21'313.0
2017-Dec-13 04:30N 45°28' W 083°24'613.1
2017-Dec-13 04:00N 45°32' W 083°30'612.9
2017-Dec-13 03:30N 45°37' W 083°37'712.8
2017-Dec-13 02:57N 45°43' W 083°42'  

Dump ship's entire track history